Time;durP1;ratioP1;P1;durP2;ratioP2;P2;SDS_P1;SDS_P2;PMS_P1;PMS_P2;Temp;Humidity;BMP_temperature;BMP_pressure;BME280_temperature;BME280_humidity;BME280_pressure;Samples;Min_cycle;Max_cycle;Signal;HPM_P1;HPM_P2
2023/01/08 00:00:56;;;;;;;33.88;19.75;;;;;;;3.69;56.07;95449.56;5025251;28;20121;-73
2023/01/08 00:03:22;;;;;;;31.05;19.35;;;;;;;3.68;55.68;95451.53;5010320;28;20123;-74
2023/01/08 00:05:47;;;;;;;34.33;19.23;;;;;;;3.73;55.75;95451.16;5025138;28;20033;-74
2023/01/08 00:08:12;;;;;;;32.45;19.15;;;;;;;3.68;56.44;95448.81;5026382;28;20041;-73
2023/01/08 00:10:38;;;;;;;30.60;19.15;;;;;;;3.67;56.35;95454.59;5025707;28;20407;-75
2023/01/08 00:13:04;;;;;;;33.47;20.33;;;;;;;3.65;55.84;95451.50;5027193;28;20347;-74
2023/01/08 00:15:29;;;;;;;31.20;19.85;;;;;;;3.61;55.60;95451.47;5009875;28;20026;-74
2023/01/08 00:17:55;;;;;;;32.35;20.00;;;;;;;3.71;55.64;95455.41;5008697;28;20021;-74
2023/01/08 00:20:21;;;;;;;34.75;19.58;;;;;;;3.64;56.76;95444.50;5027000;28;20029;-73
2023/01/08 00:22:50;;;;;;;38.60;21.85;;;;;;;3.66;56.99;95450.31;5024367;28;20783;-74
2023/01/08 00:25:15;;;;;;;37.00;20.40;;;;;;;3.59;56.77;95442.13;5027765;28;20052;-74
2023/01/08 00:27:41;;;;;;;36.20;22.10;;;;;;;3.57;56.47;95450.66;5024883;28;20217;-74
2023/01/08 00:30:07;;;;;;;33.20;21.63;;;;;;;3.57;56.30;95447.19;5025993;28;20026;-74
2023/01/08 00:32:32;;;;;;;34.83;20.65;;;;;;;3.53;56.44;95443.66;5025442;28;20064;-73
2023/01/08 00:34:58;;;;;;;33.63;19.70;;;;;;;3.55;56.17;95438.59;5025062;28;20018;-74
2023/01/08 00:37:23;;;;;;;35.47;20.38;;;;;;;3.52;57.12;95440.16;5027234;28;20024;-74
2023/01/08 00:39:49;;;;;;;34.05;19.45;;;;;;;3.46;56.39;95433.50;5007830;28;20152;-73
2023/01/08 00:42:14;;;;;;;32.67;19.73;;;;;;;3.46;56.22;95447.88;5009301;28;20034;-74
2023/01/08 00:44:40;;;;;;;35.75;19.98;;;;;;;3.45;56.02;95451.75;5024302;28;20026;-73
2023/01/08 00:47:05;;;;;;;32.05;19.65;;;;;;;3.41;55.86;95450.16;5009163;28;20051;-73
2023/01/08 00:49:30;;;;;;;32.63;20.85;;;;;;;3.46;55.71;95452.53;5026414;28;20026;-74
2023/01/08 00:51:56;;;;;;;28.60;19.52;;;;;;;3.42;55.49;95449.00;5024974;28;20018;-75
2023/01/08 00:54:21;;;;;;;33.83;20.45;;;;;;;3.35;55.98;95454.41;5025259;28;20024;-74
2023/01/08 00:56:47;;;;;;;36.72;20.65;;;;;;;3.41;55.98;95453.66;5024278;28;20026;-75
2023/01/08 00:59:12;;;;;;;36.42;21.52;;;;;;;3.39;55.79;95450.56;5025628;28;20025;-75
2023/01/08 01:01:38;;;;;;;30.75;20.65;;;;;;;3.35;55.78;95454.41;5023772;28;20033;-74
2023/01/08 01:04:03;;;;;;;37.00;20.98;;;;;;;3.33;55.54;95452.06;5009067;28;20029;-74
2023/01/08 01:06:29;;;;;;;36.70;21.10;;;;;;;3.29;55.41;95448.53;5007359;28;20515;-73
2023/01/08 01:08:55;;;;;;;38.00;20.23;;;;;;;3.23;55.92;95454.69;5024305;28;20037;-73
2023/01/08 01:11:26;;;;;;;36.70;20.80;;;;;;;3.32;55.73;95450.50;5024635;28;20029;-73
2023/01/08 01:13:51;;;;;;;35.30;20.95;;;;;;;3.30;55.35;95443.88;5024127;28;20040;-74
2023/01/08 01:16:17;;;;;;;34.38;20.95;;;;;;;3.29;55.34;95453.97;5025678;28;20030;-74
2023/01/08 01:18:42;;;;;;;32.80;20.30;;;;;;;3.28;55.14;95448.91;5007370;28;20025;-75
2023/01/08 01:21:25;;;;;;;38.28;20.38;;;;;;;3.27;55.35;95450.06;5025370;28;20036;-74
2023/01/08 01:23:52;;;;;;;37.28;20.85;;;;;;;3.20;55.19;95448.06;5023857;28;20064;-73
2023/01/08 01:26:18;;;;;;;32.58;19.08;;;;;;;3.22;55.65;95445.78;5008288;28;20029;-75
2023/01/08 01:28:46;;;;;;;38.22;20.88;;;;;;;3.19;55.34;95441.09;5008289;28;20033;-72
2023/01/08 01:31:12;;;;;;;36.60;21.48;;;;;;;3.17;55.50;95448.84;5023599;28;20104;-73
2023/01/08 01:33:39;;;;;;;33.42;18.92;;;;;;;3.14;55.90;95441.44;5025754;28;20041;-74
2023/01/08 01:36:04;;;;;;;33.42;19.73;;;;;;;3.11;55.92;95437.53;5024541;28;20543;-74
2023/01/08 01:38:30;;;;;;;37.22;20.70;;;;;;;3.14;55.58;95447.63;5009303;28;20029;-73
2023/01/08 01:40:55;;;;;;;36.47;20.48;;;;;;;3.13;55.22;95439.88;5007349;28;20033;-73
2023/01/08 01:43:42;;;;;;;34.15;20.70;;;;;;;3.09;55.16;95428.97;5007919;28;20095;-74
2023/01/08 01:46:37;;;;;;;35.88;20.00;;;;;;;3.04;55.15;95432.06;5024939;28;20030;-74
2023/01/08 01:49:11;;;;;;;32.88;20.02;;;;;;;3.06;55.29;95435.16;5022551;28;20043;-74
2023/01/08 01:51:38;;;;;;;32.58;19.27;;;;;;;2.99;55.29;95426.19;5008900;28;20029;-73
2023/01/08 01:54:04;;;;;;;31.85;19.85;;;;;;;3.03;55.29;95429.69;5023548;28;20022;-72
2023/01/08 01:56:30;;;;;;;40.10;19.85;;;;;;;3.02;55.37;95420.78;5007492;28;20056;-75
2023/01/08 01:58:55;;;;;;;33.22;19.45;;;;;;;3.01;55.29;95421.16;5024336;28;20476;-73
2023/01/08 02:01:21;;;;;;;35.00;20.67;;;;;;;2.99;55.18;95421.53;5006797;28;20041;-74
2023/01/08 02:03:46;;;;;;;31.38;20.20;;;;;;;3.03;55.29;95421.53;5008402;28;20029;-74
2023/01/08 02:06:24;;;;;;;34.42;19.50;;;;;;;2.98;55.24;95424.59;5022655;28;20021;-74
2023/01/08 02:08:49;;;;;;;29.20;19.20;;;;;;;2.95;55.46;95422.66;5025701;28;20433;-72
2023/01/08 02:11:47;;;;;;;35.88;19.08;;;;;;;2.96;55.38;95416.84;5025487;28;20029;-73
2023/01/08 02:14:34;;;;;;;33.08;18.52;;;;;;;2.87;55.58;95414.47;5022972;28;20029;-75
2023/01/08 02:17:05;;;;;;;29.98;18.67;;;;;;;2.74;55.77;95413.16;5008611;28;20037;-73
2023/01/08 02:19:46;;;;;;;33.70;19.38;;;;;;;2.83;55.60;95410.94;5024816;28;20075;-73
2023/01/08 02:22:20;;;;;;;31.27;17.95;;;;;;;2.84;55.74;95415.19;5011891;28;20786;-74
2023/01/08 02:24:50;;;;;;;27.60;17.55;;;;;;;2.83;55.89;95412.88;5029860;28;20033;-74
2023/01/08 02:27:16;;;;;;;30.27;17.42;;;;;;;2.79;56.36;95403.91;5027260;28;20055;-73
2023/01/08 02:29:41;;;;;;;29.98;17.48;;;;;;;2.77;56.29;95412.44;5012078;28;20380;-74
2023/01/08 02:32:06;;;;;;;26.42;18.25;;;;;;;2.74;56.14;95406.94;5026582;28;20033;-74
2023/01/08 02:34:32;;;;;;;31.38;18.13;;;;;;;2.77;56.43;95417.09;5011952;28;20033;-75
2023/01/08 02:36:57;;;;;;;31.98;18.70;;;;;;;2.67;56.51;95402.25;5028370;28;20029;-73
2023/01/08 02:39:46;;;;;;;29.00;17.35;;;;;;;2.72;56.19;95406.56;5011460;28;20029;-73
2023/01/08 02:42:17;;;;;;;27.02;16.77;;;;;;;2.70;56.12;95401.50;5027876;28;20029;-73
2023/01/08 02:44:51;;;;;;;28.23;17.23;;;;;;;2.70;56.12;95396.09;5026843;28;20194;-74
2023/01/08 02:47:29;;;;;;;29.25;18.25;;;;;;;2.65;56.08;95401.84;5027962;28;20044;-74
2023/01/08 02:50:22;;;;;;;25.60;17.30;;;;;;;2.57;56.49;95397.50;5011232;28;20025;-73
2023/01/08 02:53:15;;;;;;;29.40;17.77;;;;;;;2.57;56.35;95389.34;5027090;28;20029;-74
2023/01/08 02:55:43;;;;;;;27.52;17.40;;;;;;;2.57;56.51;95386.63;5013969;28;20134;-73
2023/01/08 02:58:08;;;;;;;30.65;17.17;;;;;;;2.60;56.64;95391.34;5009992;28;20049;-73
2023/01/08 03:00:34;;;;;;;29.45;16.92;;;;;;;2.58;56.55;95386.28;5011573;28;20411;-73
2023/01/08 03:03:15;;;;;;;27.38;16.83;;;;;;;2.55;56.39;95391.66;5009922;28;20502;-73
2023/01/08 03:05:42;;;;;;;26.13;16.83;;;;;;;2.54;56.22;95400.97;5012853;28;20037;-75
2023/01/08 03:08:07;;;;;;;27.42;16.60;;;;;;;2.54;56.28;95392.81;5011879;28;20037;-74
2023/01/08 03:10:32;;;;;;;27.35;17.75;;;;;;;2.54;56.12;95396.31;5009406;28;20506;-73
2023/01/08 03:13:03;;;;;;;29.02;17.67;;;;;;;2.53;56.19;95402.13;5011340;28;20021;-75
2023/01/08 03:15:50;;;;;;;28.85;16.23;;;;;;;2.54;55.90;95399.03;5009882;28;20053;-74
2023/01/08 03:18:19;;;;;;;32.60;16.92;;;;;;;2.56;56.00;95407.56;5027555;28;20025;-74
2023/01/08 03:20:44;;;;;;;28.85;17.08;;;;;;;2.55;55.80;95399.81;5027059;28;20044;-73
2023/01/08 03:23:10;;;;;;;29.95;16.23;;;;;;;2.53;55.55;95399.41;5009911;28;20871;-77
2023/01/08 03:25:40;;;;;;;22.95;15.57;;;;;;;2.52;55.23;95401.31;5011059;28;20080;-75
2023/01/08 03:28:08;;;;;;;25.92;16.20;;;;;;;2.51;55.25;95401.69;5025735;28;20136;-74
2023/01/08 03:30:34;;;;;;;29.90;16.98;;;;;;;2.50;55.15;95400.16;5026445;28;20404;-75
2023/01/08 03:32:59;;;;;;;27.17;16.15;;;;;;;2.45;55.17;95403.19;5009216;28;20029;-73
2023/01/08 03:35:25;;;;;;;28.88;16.42;;;;;;;2.47;55.56;95400.91;5026793;28;20040;-73
2023/01/08 03:37:57;;;;;;;26.42;16.83;;;;;;;2.46;55.41;95404.75;5010189;28;20040;-74
2023/01/08 03:40:25;;;;;;;25.67;17.17;;;;;;;2.47;55.63;95403.63;5025936;28;20555;-75
2023/01/08 03:42:50;;;;;;;28.95;16.45;;;;;;;2.49;55.47;95407.50;5010807;28;20033;-74
2023/01/08 03:45:16;;;;;;;25.25;16.05;;;;;;;2.44;55.03;95393.50;5008793;28;20021;-73
2023/01/08 03:47:41;;;;;;;23.70;15.40;;;;;;;2.44;55.16;95399.72;5027075;28;20034;-74
2023/01/08 03:50:09;;;;;;;23.75;16.10;;;;;;;2.43;55.32;95386.53;5009167;28;20468;-74
2023/01/08 03:52:34;;;;;;;26.02;16.63;;;;;;;2.43;55.02;95395.44;5010201;28;20041;-73
2023/01/08 03:55:00;;;;;;;25.92;16.85;;;;;;;2.43;55.19;95391.94;5027578;28;20098;-73
2023/01/08 03:57:25;;;;;;;26.10;15.40;;;;;;;2.31;55.42;95379.44;5026326;28;20021;-75
2023/01/08 03:59:51;;;;;;;28.55;16.83;;;;;;;2.38;55.43;95393.84;5010589;28;20032;-73
2023/01/08 04:02:16;;;;;;;24.92;15.80;;;;;;;2.39;56.41;95383.75;5025943;28;20029;-75
2023/01/08 04:04:42;;;;;;;30.77;17.60;;;;;;;2.30;56.16;95399.56;5027049;28;20029;-74
2023/01/08 04:07:09;;;;;;;28.50;16.02;;;;;;;2.30;55.95;95394.16;5025096;28;20083;-75
2023/01/08 04:09:34;;;;;;;23.20;16.50;;;;;;;2.24;56.24;95401.84;5026567;28;20033;-73
2023/01/08 04:12:00;;;;;;;30.27;15.50;;;;;;;2.27;56.30;95403.03;5008649;28;20125;-75
2023/01/08 04:14:25;;;;;;;25.92;15.98;;;;;;;2.24;56.19;95398.34;5027384;28;20470;-74
2023/01/08 04:16:51;;;;;;;29.88;16.58;;;;;;;2.25;56.18;95395.25;5025981;28;20029;-74
2023/01/08 04:19:16;;;;;;;28.05;15.95;;;;;;;2.26;55.92;95401.47;5026490;28;20408;-73
2023/01/08 04:21:41;;;;;;;29.77;16.77;;;;;;;2.19;56.00;95395.97;5027831;28;20144;-75
2023/01/08 04:24:07;;;;;;;25.70;15.38;;;;;;;2.16;55.93;95397.47;5026094;28;20030;-73
2023/01/08 04:26:32;;;;;;;22.80;15.63;;;;;;;2.16;56.03;95402.13;5042705;28;20025;-73
2023/01/08 04:28:58;;;;;;;25.65;16.35;;;;;;;2.14;56.10;95397.06;5008241;28;20087;-73
2023/01/08 04:31:23;;;;;;;26.23;15.27;;;;;;;2.11;56.20;95403.22;5025760;28;20030;-73
2023/01/08 04:33:49;;;;;;;27.75;16.42;;;;;;;2.08;56.23;95404.00;5026955;28;20021;-74
2023/01/08 04:36:14;;;;;;;28.27;16.20;;;;;;;2.09;56.43;95397.41;5025290;28;20017;-73
2023/01/08 04:38:40;;;;;;;24.77;16.88;;;;;;;2.05;56.61;95402.00;5025760;28;20065;-74
2023/01/08 04:41:05;;;;;;;24.27;14.55;;;;;;;2.08;56.15;95406.69;5008315;28;20025;-74
2023/01/08 04:43:31;;;;;;;27.08;15.82;;;;;;;2.02;56.14;95400.03;5025723;28;20026;-73
2023/01/08 04:45:57;;;;;;;29.23;16.73;;;;;;;2.02;56.33;95406.25;5007928;28;20021;-73
2023/01/08 04:48:23;;;;;;;26.02;16.65;;;;;;;2.00;55.82;95388.78;5009361;28;20029;-73
2023/01/08 04:50:50;;;;;;;29.02;16.83;;;;;;;2.04;55.50;95403.94;5024513;28;20025;-74
2023/01/08 04:53:15;;;;;;;24.50;15.98;;;;;;;2.03;55.41;95407.03;5009206;28;20029;-74
2023/01/08 04:55:41;;;;;;;31.40;16.77;;;;;;;2.00;55.23;95410.47;5026496;28;20117;-74
2023/01/08 04:58:06;;;;;;;31.33;18.00;;;;;;;2.00;54.96;95402.31;5024988;28;20029;-74
2023/01/08 05:00:32;;;;;;;27.77;16.85;;;;;;;1.95;55.21;95410.78;5025555;28;20478;-74
2023/01/08 05:02:57;;;;;;;32.03;18.83;;;;;;;1.94;55.51;95409.22;5025101;28;20036;-73
2023/01/08 05:05:22;;;;;;;32.97;18.25;;;;;;;1.84;55.96;95405.25;5025257;28;20128;-74
2023/01/08 05:07:48;;;;;;;30.05;17.98;;;;;;;1.90;56.28;95420.06;5025308;28;20052;-73
2023/01/08 05:10:13;;;;;;;31.90;19.08;;;;;;;1.91;56.34;95412.69;5026738;28;20029;-74
2023/01/08 05:12:39;;;;;;;27.33;17.55;;;;;;;1.89;56.15;95421.19;5024242;28;20025;-72
2023/01/08 05:15:04;;;;;;;35.08;18.67;;;;;;;1.83;56.31;95406.38;5024485;28;20041;-73
2023/01/08 05:17:30;;;;;;;37.85;19.65;;;;;;;1.87;56.47;95415.34;5008631;28;20034;-74
2023/01/08 05:19:56;;;;;;;30.75;18.00;;;;;;;1.75;56.19;95410.94;5025245;28;20017;-74
2023/01/08 05:22:22;;;;;;;32.22;17.75;;;;;;;1.84;56.14;95410.69;5008701;28;20033;-73
2023/01/08 05:24:47;;;;;;;30.90;17.67;;;;;;;1.81;55.90;95409.47;5023693;28;20475;-74
2023/01/08 05:27:13;;;;;;;36.97;19.17;;;;;;;1.84;55.80;95408.75;5025150;28;20022;-73
2023/01/08 05:29:38;;;;;;;35.95;19.88;;;;;;;1.84;55.56;95407.97;5024773;28;20025;-73
2023/01/08 05:32:05;;;;;;;26.30;17.70;;;;;;;1.83;55.73;95407.16;5008207;28;20125;-73
2023/01/08 05:34:31;;;;;;;29.77;17.60;;;;;;;1.81;55.89;95411.41;5024405;28;20052;-74
2023/01/08 05:36:56;;;;;;;27.30;18.05;;;;;;;1.86;55.32;95409.16;5025103;28;20077;-73
2023/01/08 05:39:22;;;;;;;26.83;17.10;;;;;;;1.84;55.40;95419.59;5025053;28;20036;-74
2023/01/08 05:41:48;;;;;;;32.15;17.13;;;;;;;1.85;55.15;95412.25;5024351;28;20484;-74
2023/01/08 05:44:13;;;;;;;25.77;16.70;;;;;;;1.81;55.46;95417.63;5024984;28;20443;-74
2023/01/08 05:46:38;;;;;;;26.27;17.15;;;;;;;1.77;55.39;95427.63;5023420;28;20903;-72
2023/01/08 05:49:04;;;;;;;31.48;16.77;;;;;;;1.77;55.41;95421.41;5024685;28;20400;-74
2023/01/08 05:51:29;;;;;;;29.48;18.05;;;;;;;1.75;55.37;95415.59;5023819;28;20029;-73
2023/01/08 05:53:55;;;;;;;26.20;16.35;;;;;;;1.81;55.93;95420.31;5024005;28;20041;-74
2023/01/08 05:56:21;;;;;;;28.33;15.50;;;;;;;1.76;55.30;95419.88;5025981;28;20029;-74
2023/01/08 05:58:46;;;;;;;24.25;15.23;;;;;;;1.72;55.33;95417.13;5023428;28;20036;-73
2023/01/08 06:01:14;;;;;;;28.40;16.52;;;;;;;1.69;54.95;95417.06;5026317;28;20032;-72
2023/01/08 06:03:40;;;;;;;23.48;15.27;;;;;;;1.66;55.06;95420.50;5022889;28;20072;-76
2023/01/08 06:06:06;;;;;;;24.75;15.57;;;;;;;1.70;55.33;95419.41;5008217;28;20017;-73
2023/01/08 06:08:31;;;;;;;29.05;15.55;;;;;;;1.64;55.53;95417.38;5006616;28;20524;-74
2023/01/08 06:11:01;;;;;;;24.65;16.20;;;;;;;1.61;55.56;95418.91;5024266;28;20116;-74
2023/01/08 06:13:27;;;;;;;26.27;15.98;;;;;;;1.61;55.27;95418.91;5008071;28;20025;-73
2023/01/08 06:15:52;;;;;;;23.65;14.35;;;;;;;1.67;55.23;95431.00;5023393;28;20095;-75
2023/01/08 06:18:17;;;;;;;24.23;15.95;;;;;;;1.61;55.56;95424.34;5024787;28;20029;-75
2023/01/08 06:20:43;;;;;;;26.85;16.55;;;;;;;1.66;55.66;95434.84;5024167;28;20028;-74
2023/01/08 06:23:08;;;;;;;23.02;14.68;;;;;;;1.69;55.41;95425.97;5008296;28;20025;-75
2023/01/08 06:25:35;;;;;;;23.85;15.32;;;;;;;1.65;55.47;95413.53;5024712;28;20030;-75
2023/01/08 06:28:01;;;;;;;22.38;14.85;;;;;;;1.69;55.50;95433.34;5024574;28;20032;-76
2023/01/08 06:30:26;;;;;;;26.95;15.80;;;;;;;1.73;55.47;95436.88;5023696;28;20025;-74
2023/01/08 06:32:56;;;;;;;28.98;16.02;;;;;;;1.73;55.47;95439.59;5023448;28;20037;-75
2023/01/08 06:35:21;;;;;;;29.15;16.05;;;;;;;1.78;55.39;95450.91;5024355;28;20033;-76
2023/01/08 06:37:47;;;;;;;27.88;16.42;;;;;;;1.76;55.64;95436.91;5006357;28;20091;-75
2023/01/08 06:40:12;;;;;;;31.42;18.40;;;;;;;1.87;55.31;95447.88;5024529;28;20099;-76
2023/01/08 06:42:38;;;;;;;28.58;18.60;;;;;;;1.78;55.46;95437.34;5023834;28;20080;-75
2023/01/08 06:45:05;;;;;;;28.60;16.73;;;;;;;1.87;55.42;95453.31;5024476;28;20045;-74
2023/01/08 06:47:31;;;;;;;33.20;20.02;;;;;;;1.91;55.76;95458.78;5023415;28;20600;-75
2023/01/08 06:49:58;;;;;;;31.55;21.02;;;;;;;1.95;55.95;95443.34;5007243;28;20041;-75
2023/01/08 06:52:24;;;;;;;38.50;21.45;;;;;;;1.99;55.76;95447.66;5008024;28;20472;-75
2023/01/08 06:54:49;;;;;;;33.92;21.75;;;;;;;2.03;55.64;95451.19;5022876;28;20044;-75
2023/01/08 06:57:14;;;;;;;37.28;23.70;;;;;;;2.03;55.52;95450.41;5024533;28;20123;-75
2023/01/08 06:59:40;;;;;;;37.03;24.48;;;;;;;2.09;55.47;95457.84;5023575;28;20120;-77
2023/01/08 07:02:05;;;;;;;37.67;24.40;;;;;;;2.16;55.38;95454.44;5024090;28;20034;-75
2023/01/08 07:04:31;;;;;;;42.00;26.58;;;;;;;2.16;55.70;95459.09;5006104;28;20042;-76
2023/01/08 07:06:56;;;;;;;45.30;28.20;;;;;;;2.26;55.74;95461.16;5027559;28;20033;-77
2023/01/08 07:09:22;;;;;;;50.47;32.10;;;;;;;2.31;55.32;95458.88;5027335;28;20050;-75
2023/01/08 07:11:47;;;;;;;50.47;33.80;;;;;;;2.38;55.52;95467.09;5026407;28;20041;-74
2023/01/08 07:14:13;;;;;;;66.65;39.75;;;;;;;2.47;55.34;95461.41;5027877;28;20508;-75
2023/01/08 07:16:38;;;;;;;77.32;44.85;;;;;;;2.58;56.08;95458.75;5025773;28;20022;-76
2023/01/08 07:19:04;;;;;;;77.82;46.85;;;;;;;2.58;55.88;95462.28;5029120;28;20474;-74
2023/01/08 07:21:29;;;;;;;84.50;49.50;;;;;;;2.73;55.89;95465.13;5026100;28;20051;-74
2023/01/08 07:23:55;;;;;;;80.07;53.10;;;;;;;2.86;55.52;95469.13;5027355;28;20025;-76
2023/01/08 07:26:20;;;;;;;95.47;52.33;;;;;;;3.02;55.21;95474.31;5026884;28;20061;-75
2023/01/08 07:28:46;;;;;;;97.97;58.58;;;;;;;3.17;54.88;95473.28;5026581;28;20087;-75
2023/01/08 07:31:11;;;;;;;123.18;69.32;;;;;;;3.31;54.41;95481.53;5027271;28;20036;-74
2023/01/08 07:33:37;;;;;;;125.63;70.40;;;;;;;3.45;54.05;95475.44;5042283;28;20032;-75
2023/01/08 07:36:03;;;;;;;118.43;67.05;;;;;;;3.54;53.63;95475.09;5028848;28;20032;-75
2023/01/08 07:38:28;;;;;;;107.03;60.75;;;;;;;3.72;53.29;95476.78;5026805;28;20121;-73
2023/01/08 07:40:56;;;;;;;101.15;58.63;;;;;;;3.90;52.33;95476.91;5027002;28;20022;-75
2023/01/08 07:43:21;;;;;;;90.93;52.38;;;;;;;4.14;51.87;95480.91;5009321;28;20025;-76
2023/01/08 07:45:47;;;;;;;79.60;47.00;;;;;;;4.30;50.90;95474.34;5028547;28;20079;-76
2023/01/08 07:48:15;;;;;;;69.85;43.72;;;;;;;4.47;50.63;95476.34;5026865;28;20018;-75
2023/01/08 07:50:41;;;;;;;67.85;41.67;;;;;;;4.66;49.92;95472.53;5025578;28;20497;-73
2023/01/08 07:53:07;;;;;;;63.40;39.50;;;;;;;4.92;49.31;95472.19;5027079;28;20026;-76
2023/01/08 07:55:33;;;;;;;62.17;39.35;;;;;;;5.16;48.85;95472.59;5008612;28;20025;-77
2023/01/08 07:57:58;;;;;;;64.38;38.85;;;;;;;5.40;48.55;95471.84;5028329;28;20411;-74
2023/01/08 08:00:24;;;;;;;70.88;39.88;;;;;;;5.74;47.62;95477.66;5025414;28;20033;-74
2023/01/08 08:02:49;;;;;;;67.68;40.78;;;;;;;6.04;47.05;95482.69;5026361;28;20041;-76
2023/01/08 08:05:16;;;;;;;65.10;43.05;;;;;;;6.39;46.36;95472.81;5009853;28;20044;-74
2023/01/08 08:07:42;;;;;;;68.07;42.58;;;;;;;6.87;45.18;95483.09;5026675;28;20045;-76
2023/01/08 08:10:08;;;;;;;61.55;41.67;;;;;;;7.42;44.04;95474.13;5026699;28;20456;-75
2023/01/08 08:12:33;;;;;;;62.95;41.55;;;;;;;8.98;41.04;95487.31;5008175;28;20553;-74
2023/01/08 08:14:58;;;;;;;59.33;40.25;;;;;;;11.61;36.22;95478.06;5010219;28;20026;-73
2023/01/08 08:17:25;;;;;;;55.65;36.90;;;;;;;13.51;32.59;95491.75;5024613;28;20029;-74
2023/01/08 08:19:51;;;;;;;57.85;39.70;;;;;;;15.01;29.92;95481.13;5027875;28;20022;-76
2023/01/08 08:22:16;;;;;;;56.53;37.60;;;;;;;16.41;27.65;95474.34;5025338;28;20096;-75
2023/01/08 08:24:42;;;;;;;50.17;36.83;;;;;;;17.93;25.85;95487.28;5009789;28;20087;-73
2023/01/08 08:27:08;;;;;;;54.08;38.78;;;;;;;19.35;23.84;95489.56;5026622;28;20634;-75
2023/01/08 08:29:34;;;;;;;54.50;37.92;;;;;;;20.63;22.43;95489.91;5009107;28;20045;-74
2023/01/08 08:31:59;;;;;;;43.22;34.10;;;;;;;21.68;21.29;95486.66;5027379;28;20105;-72
2023/01/08 08:34:25;;;;;;;43.15;33.35;;;;;;;22.68;20.19;95504.56;5025904;28;20064;-73
2023/01/08 08:36:50;;;;;;;45.53;35.90;;;;;;;23.72;19.50;95503.81;5026028;28;20038;-74
2023/01/08 08:39:17;;;;;;;42.88;33.22;;;;;;;24.64;18.21;95504.69;5024636;28;20485;-74
2023/01/08 08:41:42;;;;;;;48.22;35.90;;;;;;;25.54;17.52;95499.38;5027476;28;20104;-74
2023/01/08 08:44:08;;;;;;;44.15;35.85;;;;;;;26.37;16.62;95499.94;5025039;28;20057;-76
2023/01/08 08:46:33;;;;;;;53.85;40.92;;;;;;;27.14;16.11;95505.22;5008252;28;20083;-75
2023/01/08 08:48:59;;;;;;;51.05;41.28;;;;;;;27.88;15.15;95502.13;5009888;28;20033;-74
2023/01/08 08:51:24;;;;;;;55.97;42.53;;;;;;;28.30;14.76;95503.16;5024061;28;20025;-73
2023/01/08 08:53:50;;;;;;;57.92;43.40;;;;;;;28.92;14.31;95499.19;5025786;28;20221;-76
2023/01/08 08:56:15;;;;;;;49.97;41.50;;;;;;;29.65;13.32;95500.44;5024257;28;20040;-75
2023/01/08 08:58:41;;;;;;;47.63;40.63;;;;;;;30.08;13.26;95502.75;5025292;28;20041;-76
2023/01/08 09:01:07;;;;;;;51.20;39.47;;;;;;;30.61;13.02;95503.16;5024626;28;20028;-77
2023/01/08 09:03:32;;;;;;;46.45;37.75;;;;;;;30.81;12.37;95495.94;5008482;28;20112;-76
2023/01/08 09:05:58;;;;;;;48.05;39.30;;;;;;;31.39;12.41;95493.78;5009154;28;20573;-77
2023/01/08 09:08:23;;;;;;;49.53;38.00;;;;;;;31.95;11.75;95498.47;5007594;28;20049;-76
2023/01/08 09:10:49;;;;;;;46.58;37.45;;;;;;;32.35;11.40;95503.63;5008971;28;20857;-76
2023/01/08 09:13:14;;;;;;;46.88;37.95;;;;;;;32.67;11.37;95499.41;5023808;28;20033;-75
2023/01/08 09:15:39;;;;;;;45.67;36.95;;;;;;;33.00;10.69;95488.91;5025294;28;20014;-77
2023/01/08 09:18:06;;;;;;;40.13;34.17;;;;;;;33.55;10.58;95491.75;5023839;28;20029;-75
2023/01/08 09:20:31;;;;;;;40.05;35.58;;;;;;;33.83;10.58;95484.91;5024840;28;20083;-78
2023/01/08 09:22:58;;;;;;;41.83;35.15;;;;;;;34.26;10.08;95477.22;5008178;28;20341;-73
2023/01/08 09:25:24;;;;;;;40.75;34.65;;;;;;;34.47;10.17;95478.97;5024217;28;20433;-75
2023/01/08 09:28:00;;;;;;;44.58;35.88;;;;;;;34.71;9.60;95483.09;5024853;28;20112;-74
2023/01/08 09:30:25;;;;;;;42.95;34.50;;;;;;;35.04;9.85;95475.13;5023304;28;20075;-74
2023/01/08 09:32:55;;;;;;;41.97;34.35;;;;;;;35.30;9.45;95476.53;5025238;28;20033;-74
2023/01/08 09:35:20;;;;;;;47.47;35.70;;;;;;;35.74;9.65;95467.97;5024942;28;20474;-76
2023/01/08 09:37:50;;;;;;;42.95;34.80;;;;;;;36.00;8.86;95459.97;5024748;28;20025;-75
2023/01/08 09:40:15;;;;;;;40.75;35.28;;;;;;;36.20;9.14;95458.72;5008440;28;20025;-75
2023/01/08 09:42:40;;;;;;;45.90;35.65;;;;;;;36.66;9.07;95464.41;5006979;28;20033;-76
2023/01/08 09:45:11;;;;;;;44.60;33.55;;;;;;;37.07;8.17;95458.88;5008672;28;20029;-76
2023/01/08 09:47:38;;;;;;;41.72;33.15;;;;;;;37.59;8.20;95457.63;5006962;28;20037;-75
2023/01/08 09:50:10;;;;;;;41.22;33.40;;;;;;;38.04;8.29;95449.38;5008700;28;20025;-74
2023/01/08 09:52:35;;;;;;;37.85;31.75;;;;;;;38.55;7.62;95447.91;5007306;28;20500;-77
2023/01/08 09:55:01;;;;;;;33.85;28.77;;;;;;;38.92;7.52;95436.03;5024627;28;20053;-75
2023/01/08 09:57:37;;;;;;;37.63;30.83;;;;;;;39.04;7.02;95431.06;5024466;28;20499;-77
2023/01/08 10:00:03;;;;;;;35.92;30.25;;;;;;;39.09;7.08;95429.22;5023665;28;20064;-75
2023/01/08 10:02:30;;;;;;;37.88;29.98;;;;;;;39.11;7.16;95427.22;5024427;28;20029;-76
2023/01/08 10:04:57;;;;;;;36.17;30.45;;;;;;;39.15;7.26;95424.63;5023021;28;20037;-74
2023/01/08 10:07:26;;;;;;;36.63;30.95;;;;;;;39.21;6.83;95418.53;5008333;28;20480;-75
2023/01/08 10:09:52;;;;;;;35.55;29.45;;;;;;;39.31;7.26;95419.22;5007001;28;20029;-75
2023/01/08 10:12:32;;;;;;;33.28;28.67;;;;;;;39.66;7.11;95409.94;5008090;28;20049;-73
2023/01/08 10:15:05;;;;;;;36.67;30.73;;;;;;;39.73;7.12;95403.19;5008863;28;20044;-74
2023/01/08 10:17:36;;;;;;;34.67;28.13;;;;;;;40.02;6.72;95399.94;5022879;28;20033;-75
2023/01/08 10:20:07;;;;;;;34.42;29.33;;;;;;;40.28;6.71;95395.84;5008585;28;20029;-76
2023/01/08 10:22:33;;;;;;;36.13;30.88;;;;;;;40.39;6.62;95396.44;5022992;28;20044;-75
2023/01/08 10:25:30;;;;;;;34.55;30.83;;;;;;;40.54;6.78;95408.19;5008253;28;20026;-74
2023/01/08 10:28:02;;;;;;;38.05;30.67;;;;;;;40.81;6.48;95401.88;5025933;28;20465;-75
2023/01/08 10:30:30;;;;;;;35.95;30.55;;;;;;;40.76;6.40;95388.59;5023064;28;20515;-75
2023/01/08 10:32:56;;;;;;;32.90;27.65;;;;;;;40.74;6.41;95390.63;5026005;28;20041;-76
2023/01/08 10:35:30;;;;;;;32.08;25.63;;;;;;;40.94;6.19;95388.19;5022954;28;20064;-76
2023/01/08 10:37:55;;;;;;;34.03;27.27;;;;;;;40.81;6.55;95383.84;5008262;28;20033;-74
2023/01/08 10:40:25;;;;;;;30.08;26.08;;;;;;;40.86;6.48;95371.91;5009179;28;20033;-75
2023/01/08 10:42:51;;;;;;;29.08;24.90;;;;;;;41.17;6.31;95375.81;5011690;28;20126;-75
2023/01/08 10:45:30;;;;;;;33.78;25.85;;;;;;;41.21;6.15;95365.25;5012074;28;20095;-75
2023/01/08 10:47:57;;;;;;;31.60;25.88;;;;;;;41.44;6.19;95367.28;5025532;28;20034;-73
2023/01/08 10:50:25;;;;;;;27.33;24.52;;;;;;;41.44;6.24;95360.78;5011824;28;20029;-75
2023/01/08 10:52:55;;;;;;;31.92;24.55;;;;;;;41.59;6.03;95360.16;5026798;28;20037;-76
2023/01/08 10:55:24;;;;;;;27.08;24.27;;;;;;;41.95;5.85;95349.13;5027891;28;20032;-75
2023/01/08 10:57:57;;;;;;;28.98;23.90;;;;;;;42.29;5.78;95345.19;5028876;28;20030;-76
2023/01/08 11:00:25;;;;;;;27.90;24.15;;;;;;;42.82;5.48;95345.00;5026871;28;20032;-76
2023/01/08 11:02:50;;;;;;;29.13;23.05;;;;;;;42.92;5.30;95348.38;5027689;28;20471;-76
2023/01/08 11:05:55;;;;;;;28.52;22.65;;;;;;;43.09;5.07;95344.19;5029158;28;20026;-79
2023/01/08 11:09:00;;;;;;;27.77;22.48;;;;;;;42.92;5.14;95336.06;5029505;28;20080;-75
2023/01/08 11:11:34;;;;;;;28.73;23.95;;;;;;;42.02;5.66;95334.38;5013113;28;20041;-73
2023/01/08 11:14:02;;;;;;;31.05;23.35;;;;;;;41.88;5.92;95330.75;5011104;28;20029;-75
2023/01/08 11:16:38;;;;;;;30.40;23.85;;;;;;;41.35;5.92;95328.59;5027906;28;20033;-75
2023/01/08 11:19:04;;;;;;;30.90;23.77;;;;;;;41.15;5.90;95326.69;5009840;28;20017;-74
2023/01/08 11:21:30;;;;;;;24.67;22.05;;;;;;;41.07;6.31;95335.63;5011026;28;20470;-75
2023/01/08 11:24:21;;;;;;;28.35;23.95;;;;;;;41.34;6.36;95329.97;5010384;28;20025;-74
2023/01/08 11:26:52;;;;;;;27.23;23.95;;;;;;;41.79;5.66;95329.53;5025814;28;20108;-76